sensor_id;sensor_type;location;lat;lon;timestamp;pressure;altitude;pressure_sealevel;temperature;humidity
60319;BME280;46163;52.306;5.634;2023-07-16T00:00:24;100638.00;;;16.81;61.53
60319;BME280;46163;52.306;5.634;2023-07-16T00:02:50;100644.75;;;16.83;62.06
60319;BME280;46163;52.306;5.634;2023-07-16T00:05:15;100652.16;;;16.76;63.22
60319;BME280;46163;52.306;5.634;2023-07-16T00:07:43;100651.75;;;16.84;62.04
60319;BME280;46163;52.306;5.634;2023-07-16T00:10:09;100653.72;;;16.72;62.35
60319;BME280;46163;52.306;5.634;2023-07-16T00:12:38;100654.84;;;16.76;61.80
60319;BME280;46163;52.306;5.634;2023-07-16T00:15:03;100658.59;;;16.75;61.91
60319;BME280;46163;52.306;5.634;2023-07-16T00:17:29;100649.56;;;16.81;61.68
60319;BME280;46163;52.306;5.634;2023-07-16T00:19:57;100653.72;;;16.89;60.78
60319;BME280;46163;52.306;5.634;2023-07-16T00:22:22;100645.91;;;16.87;60.16
60319;BME280;46163;52.306;5.634;2023-07-16T00:24:47;100643.69;;;16.84;59.84
60319;BME280;46163;52.306;5.634;2023-07-16T00:27:13;100657.22;;;16.89;60.07
60319;BME280;46163;52.306;5.634;2023-07-16T00:29:38;100649.66;;;16.86;59.94
60319;BME280;46163;52.306;5.634;2023-07-16T00:32:04;100657.47;;;16.88;59.67
60319;BME280;46163;52.306;5.634;2023-07-16T00:34:29;100652.25;;;16.81;59.57
60319;BME280;46163;52.306;5.634;2023-07-16T00:36:55;100660.81;;;16.78;60.37
60319;BME280;46163;52.306;5.634;2023-07-16T00:39:26;100653.56;;;16.79;58.59
60319;BME280;46163;52.306;5.634;2023-07-16T00:41:52;100658.19;;;16.83;59.26
60319;BME280;46163;52.306;5.634;2023-07-16T00:44:22;100656.56;;;16.82;58.24
60319;BME280;46163;52.306;5.634;2023-07-16T00:46:48;100648.59;;;16.71;58.50
60319;BME280;46163;52.306;5.634;2023-07-16T00:49:13;100654.22;;;16.86;58.50
60319;BME280;46163;52.306;5.634;2023-07-16T00:51:39;100653.47;;;16.74;58.83
60319;BME280;46163;52.306;5.634;2023-07-16T00:54:05;100652.09;;;16.71;58.81
60319;BME280;46163;52.306;5.634;2023-07-16T00:56:31;100662.03;;;16.71;59.10
60319;BME280;46163;52.306;5.634;2023-07-16T00:58:59;100655.03;;;16.70;58.42
60319;BME280;46163;52.306;5.634;2023-07-16T01:01:25;100656.91;;;16.69;58.88
60319;BME280;46163;52.306;5.634;2023-07-16T01:03:51;100660.81;;;16.78;58.10
60319;BME280;46163;52.306;5.634;2023-07-16T01:06:22;100662.91;;;16.76;58.15
60319;BME280;46163;52.306;5.634;2023-07-16T01:09:03;100662.19;;;16.81;57.96
60319;BME280;46163;52.306;5.634;2023-07-16T01:11:32;100659.09;;;16.72;57.88
60319;BME280;46163;52.306;5.634;2023-07-16T01:14:01;100645.56;;;16.67;58.25
60319;BME280;46163;52.306;5.634;2023-07-16T01:16:27;100656.66;;;16.71;58.54
60319;BME280;46163;52.306;5.634;2023-07-16T01:18:55;100640.84;;;16.57;58.24
60319;BME280;46163;52.306;5.634;2023-07-16T01:21:22;100668.59;;;16.63;58.95
60319;BME280;46163;52.306;5.634;2023-07-16T01:31:55;100651.13;;;16.60;59.52
60319;BME280;46163;52.306;5.634;2023-07-16T01:34:21;100659.38;;;16.59;59.15
60319;BME280;46163;52.306;5.634;2023-07-16T01:36:47;100651.75;;;16.51;59.87
60319;BME280;46163;52.306;5.634;2023-07-16T01:39:14;100645.56;;;16.50;58.85
60319;BME280;46163;52.306;5.634;2023-07-16T01:41:40;100644.59;;;16.56;58.79
60319;BME280;46163;52.306;5.634;2023-07-16T01:44:05;100640.03;;;16.57;58.91
60319;BME280;46163;52.306;5.634;2023-07-16T01:46:33;100654.91;;;16.64;58.99
60319;BME280;46163;52.306;5.634;2023-07-16T01:48:59;100652.50;;;16.63;59.07
60319;BME280;46163;52.306;5.634;2023-07-16T01:51:24;100653.00;;;16.60;58.98
60319;BME280;46163;52.306;5.634;2023-07-16T01:53:50;100660.53;;;16.63;59.18
60319;BME280;46163;52.306;5.634;2023-07-16T01:56:18;100649.66;;;16.70;58.96
60319;BME280;46163;52.306;5.634;2023-07-16T01:58:43;100638.97;;;16.58;59.24
60319;BME280;46163;52.306;5.634;2023-07-16T02:01:08;100651.97;;;16.66;59.03
60319;BME280;46163;52.306;5.634;2023-07-16T02:03:34;100650.88;;;16.62;59.20
60319;BME280;46163;52.306;5.634;2023-07-16T02:05:59;100648.34;;;16.55;59.35
60319;BME280;46163;52.306;5.634;2023-07-16T02:08:25;100641.34;;;16.54;59.18
60319;BME280;46163;52.306;5.634;2023-07-16T02:10:50;100654.50;;;16.56;59.58
60319;BME280;46163;52.306;5.634;2023-07-16T02:13:16;100652.59;;;16.51;59.62
60319;BME280;46163;52.306;5.634;2023-07-16T02:15:42;100643.06;;;16.44;60.42
60319;BME280;46163;52.306;5.634;2023-07-16T02:18:08;100653.59;;;16.50;59.88
60319;BME280;46163;52.306;5.634;2023-07-16T02:20:35;100657.13;;;16.51;59.98
60319;BME280;46163;52.306;5.634;2023-07-16T02:23:03;100659.22;;;16.49;59.71
60319;BME280;46163;52.306;5.634;2023-07-16T02:25:28;100660.53;;;16.46;60.33
60319;BME280;46163;52.306;5.634;2023-07-16T02:27:54;100667.53;;;16.47;60.37
60319;BME280;46163;52.306;5.634;2023-07-16T02:30:19;100656.47;;;16.44;60.71
60319;BME280;46163;52.306;5.634;2023-07-16T02:32:45;100655.97;;;16.47;60.28
60319;BME280;46163;52.306;5.634;2023-07-16T02:35:10;100663.06;;;16.53;60.12
60319;BME280;46163;52.306;5.634;2023-07-16T02:37:36;100654.34;;;16.46;60.42
60319;BME280;46163;52.306;5.634;2023-07-16T02:40:01;100658.56;;;16.42;61.13
60319;BME280;46163;52.306;5.634;2023-07-16T02:42:28;100658.75;;;16.52;60.64
60319;BME280;46163;52.306;5.634;2023-07-16T02:44:53;100651.34;;;16.42;60.90
60319;BME280;46163;52.306;5.634;2023-07-16T02:47:21;100663.47;;;16.45;61.08
60319;BME280;46163;52.306;5.634;2023-07-16T02:49:46;100653.38;;;16.35;61.00
60319;BME280;46163;52.306;5.634;2023-07-16T02:52:12;100664.78;;;16.42;61.44
60319;BME280;46163;52.306;5.634;2023-07-16T02:54:37;100652.56;;;16.34;61.61
60319;BME280;46163;52.306;5.634;2023-07-16T02:57:03;100656.31;;;16.33;61.64
60319;BME280;46163;52.306;5.634;2023-07-16T02:59:28;100657.34;;;16.32;61.90
60319;BME280;46163;52.306;5.634;2023-07-16T03:01:54;100647.00;;;16.24;61.80
60319;BME280;46163;52.306;5.634;2023-07-16T03:04:20;100656.47;;;16.27;62.22
60319;BME280;46163;52.306;5.634;2023-07-16T03:06:45;100665.34;;;16.27;62.58
60319;BME280;46163;52.306;5.634;2023-07-16T03:09:11;100675.25;;;16.27;62.89
60319;BME280;46163;52.306;5.634;2023-07-16T03:11:39;100658.97;;;16.17;62.67
60319;BME280;46163;52.306;5.634;2023-07-16T03:14:04;100666.72;;;16.30;62.74
60319;BME280;46163;52.306;5.634;2023-07-16T03:16:29;100669.75;;;16.33;62.47
60319;BME280;46163;52.306;5.634;2023-07-16T03:18:55;100656.72;;;16.25;62.63
60319;BME280;46163;52.306;5.634;2023-07-16T03:21:20;100678.84;;;16.32;62.60
60319;BME280;46163;52.306;5.634;2023-07-16T03:23:48;100669.88;;;16.27;62.98
60319;BME280;46163;52.306;5.634;2023-07-16T03:26:13;100675.72;;;16.24;62.98
60319;BME280;46163;52.306;5.634;2023-07-16T03:28:41;100684.59;;;16.24;63.02
60319;BME280;46163;52.306;5.634;2023-07-16T03:31:06;100675.16;;;16.22;63.37
60319;BME280;46163;52.306;5.634;2023-07-16T03:33:32;100671.59;;;16.16;63.25
60319;BME280;46163;52.306;5.634;2023-07-16T03:36:00;100675.56;;;16.14;63.33
60319;BME280;46163;52.306;5.634;2023-07-16T03:38:25;100679.22;;;16.07;64.14
60319;BME280;46163;52.306;5.634;2023-07-16T03:40:51;100658.97;;;16.17;63.22
60319;BME280;46163;52.306;5.634;2023-07-16T03:43:20;100681.06;;;16.07;63.85
60319;BME280;46163;52.306;5.634;2023-07-16T03:45:46;100687.72;;;16.04;64.16
60319;BME280;46163;52.306;5.634;2023-07-16T03:48:11;100684.00;;;16.05;64.02
60319;BME280;46163;52.306;5.634;2023-07-16T03:50:39;100692.53;;;16.02;64.01
60319;BME280;46163;52.306;5.634;2023-07-16T03:53:04;100680.56;;;15.93;64.73
60319;BME280;46163;52.306;5.634;2023-07-16T03:55:32;100707.34;;;16.05;64.25
60319;BME280;46163;52.306;5.634;2023-07-16T03:57:58;100698.16;;;16.01;64.09
60319;BME280;46163;52.306;5.634;2023-07-16T04:00:23;100695.91;;;15.98;64.33
60319;BME280;46163;52.306;5.634;2023-07-16T04:02:48;100708.41;;;16.04;64.34
60319;BME280;46163;52.306;5.634;2023-07-16T04:05:14;100699.28;;;16.05;63.78
60319;BME280;46163;52.306;5.634;2023-07-16T04:07:39;100711.06;;;16.04;64.07
60319;BME280;46163;52.306;5.634;2023-07-16T04:10:05;100714.69;;;16.09;63.71
60319;BME280;46163;52.306;5.634;2023-07-16T04:12:31;100719.25;;;16.09;63.35
60319;BME280;46163;52.306;5.634;2023-07-16T04:14:58;100729.97;;;16.09;63.77
60319;BME280;46163;52.306;5.634;2023-07-16T04:17:24;100727.72;;;16.18;63.41
60319;BME280;46163;52.306;5.634;2023-07-16T04:19:52;100727.88;;;16.11;63.57
60319;BME280;46163;52.306;5.634;2023-07-16T04:22:17;100715.81;;;16.14;63.71
60319;BME280;46163;52.306;5.634;2023-07-16T04:24:43;100723.56;;;16.10;63.69
60319;BME280;46163;52.306;5.634;2023-07-16T04:27:08;100709.31;;;16.09;63.08
60319;BME280;46163;52.306;5.634;2023-07-16T04:29:33;100722.50;;;16.11;63.42
60319;BME280;46163;52.306;5.634;2023-07-16T04:32:01;100717.63;;;16.08;63.35
60319;BME280;46163;52.306;5.634;2023-07-16T04:34:27;100724.22;;;16.17;63.82
60319;BME280;46163;52.306;5.634;2023-07-16T04:36:55;100732.75;;;16.14;63.61
60319;BME280;46163;52.306;5.634;2023-07-16T04:39:20;100735.19;;;16.16;65.18
60319;BME280;46163;52.306;5.634;2023-07-16T04:41:48;100739.72;;;16.15;64.17
60319;BME280;46163;52.306;5.634;2023-07-16T04:44:16;100746.03;;;16.21;63.76
60319;BME280;46163;52.306;5.634;2023-07-16T04:46:41;100734.47;;;16.20;63.63
60319;BME280;46163;52.306;5.634;2023-07-16T04:49:06;100753.59;;;16.24;63.76
60319;BME280;46163;52.306;5.634;2023-07-16T04:51:34;100747.41;;;16.23;63.59
60319;BME280;46163;52.306;5.634;2023-07-16T04:53:59;100752.22;;;16.21;63.69
60319;BME280;46163;52.306;5.634;2023-07-16T04:56:25;100740.56;;;16.16;64.79
60319;BME280;46163;52.306;5.634;2023-07-16T04:58:51;100761.09;;;16.22;64.88
60319;BME280;46163;52.306;5.634;2023-07-16T05:01:16;100744.41;;;16.20;63.24
60319;BME280;46163;52.306;5.634;2023-07-16T05:03:41;100752.31;;;16.26;65.11
60319;BME280;46163;52.306;5.634;2023-07-16T05:06:07;100752.69;;;16.18;63.92
60319;BME280;46163;52.306;5.634;2023-07-16T05:08:32;100759.44;;;16.21;63.89
60319;BME280;46163;52.306;5.634;2023-07-16T05:10:58;100760.38;;;16.26;63.35
60319;BME280;46163;52.306;5.634;2023-07-16T05:13:24;100762.09;;;16.32;63.76
60319;BME280;46163;52.306;5.634;2023-07-16T05:15:49;100747.53;;;16.28;62.60
60319;BME280;46163;52.306;5.634;2023-07-16T05:18:16;100752.16;;;16.33;62.50
60319;BME280;46163;52.306;5.634;2023-07-16T05:20:47;100757.72;;;16.43;62.73
60319;BME280;46163;52.306;5.634;2023-07-16T05:23:13;100750.31;;;16.33;63.64
60319;BME280;46163;52.306;5.634;2023-07-16T05:25:38;100759.59;;;16.43;62.99
60319;BME280;46163;52.306;5.634;2023-07-16T05:28:04;100756.31;;;16.40;62.57
60319;BME280;46163;52.306;5.634;2023-07-16T05:30:31;100764.25;;;16.47;62.35
60319;BME280;46163;52.306;5.634;2023-07-16T05:32:57;100756.75;;;16.49;61.70
60319;BME280;46163;52.306;5.634;2023-07-16T05:35:22;100759.22;;;16.51;62.18
60319;BME280;46163;52.306;5.634;2023-07-16T05:37:47;100763.28;;;16.53;61.86
60319;BME280;46163;52.306;5.634;2023-07-16T05:40:13;100763.03;;;16.55;61.56
60319;BME280;46163;52.306;5.634;2023-07-16T05:42:38;100782.50;;;16.62;61.69
60319;BME280;46163;52.306;5.634;2023-07-16T05:45:04;100789.84;;;16.66;61.33
60319;BME280;46163;52.306;5.634;2023-07-16T05:47:30;100788.09;;;16.72;61.36
60319;BME280;46163;52.306;5.634;2023-07-16T05:49:55;100791.84;;;16.71;60.46
60319;BME280;46163;52.306;5.634;2023-07-16T05:52:21;100800.97;;;16.70;60.99
60319;BME280;46163;52.306;5.634;2023-07-16T05:54:46;100788.75;;;16.79;59.97
60319;BME280;46163;52.306;5.634;2023-07-16T05:57:14;100779.31;;;16.77;60.01
60319;BME280;46163;52.306;5.634;2023-07-16T05:59:40;100784.88;;;16.87;60.13
60319;BME280;46163;52.306;5.634;2023-07-16T06:02:06;100797.25;;;16.88;61.13
60319;BME280;46163;52.306;5.634;2023-07-16T06:04:31;100795.13;;;16.90;59.96
60319;BME280;46163;52.306;5.634;2023-07-16T06:06:57;100810.34;;;17.01;60.82
60319;BME280;46163;52.306;5.634;2023-07-16T06:09:23;100785.31;;;16.84;59.36
60319;BME280;46163;52.306;5.634;2023-07-16T06:11:48;100794.81;;;17.03;59.79
60319;BME280;46163;52.306;5.634;2023-07-16T06:14:14;100805.88;;;17.07;58.95
60319;BME280;46163;52.306;5.634;2023-07-16T06:16:40;100803.69;;;17.04;59.16
60319;BME280;46163;52.306;5.634;2023-07-16T06:19:05;100810.59;;;17.16;59.66
60319;BME280;46163;52.306;5.634;2023-07-16T06:21:31;100813.03;;;17.18;59.33
60319;BME280;46163;52.306;5.634;2023-07-16T06:23:56;100816.38;;;17.25;58.45
60319;BME280;46163;52.306;5.634;2023-07-16T06:26:24;100814.75;;;17.24;58.69
60319;BME280;46163;52.306;5.634;2023-07-16T06:28:50;100827.25;;;17.30;58.99
60319;BME280;46163;52.306;5.634;2023-07-16T06:31:16;100823.31;;;17.38;59.04
60319;BME280;46163;52.306;5.634;2023-07-16T06:33:42;100822.31;;;17.44;58.77
60319;BME280;46163;52.306;5.634;2023-07-16T06:36:09;100819.47;;;17.50;58.54
60319;BME280;46163;52.306;5.634;2023-07-16T06:38:35;100826.97;;;17.65;58.86
60319;BME280;46163;52.306;5.634;2023-07-16T06:41:00;100820.59;;;17.71;58.41
60319;BME280;46163;52.306;5.634;2023-07-16T06:43:27;100827.50;;;17.67;58.33
60319;BME280;46163;52.306;5.634;2023-07-16T06:45:55;100825.38;;;17.69;58.18
60319;BME280;46163;52.306;5.634;2023-07-16T06:48:20;100826.88;;;17.77;57.78
60319;BME280;46163;52.306;5.634;2023-07-16T06:50:49;100828.50;;;17.78;58.21
60319;BME280;46163;52.306;5.634;2023-07-16T06:53:15;100828.84;;;17.82;58.12
60319;BME280;46163;52.306;5.634;2023-07-16T06:55:43;100828.72;;;17.93;58.28
60319;BME280;46163;52.306;5.634;2023-07-16T06:58:13;100815.81;;;17.95;57.47
60319;BME280;46163;52.306;5.634;2023-07-16T07:00:38;100831.09;;;18.12;57.68
60319;BME280;46163;52.306;5.634;2023-07-16T07:03:04;100827.41;;;18.18;57.22
60319;BME280;46163;52.306;5.634;2023-07-16T07:05:29;100812.97;;;18.29;57.45
60319;BME280;46163;52.306;5.634;2023-07-16T07:07:55;100821.84;;;18.24;57.47
60319;BME280;46163;52.306;5.634;2023-07-16T07:10:20;100846.06;;;18.46;56.02
60319;BME280;46163;52.306;5.634;2023-07-16T07:12:48;100837.91;;;18.41;55.73
60319;BME280;46163;52.306;5.634;2023-07-16T07:15:13;100835.66;;;18.82;55.18
60319;BME280;46163;52.306;5.634;2023-07-16T07:17:39;100842.78;;;20.87;50.37
60319;BME280;46163;52.306;5.634;2023-07-16T07:20:08;100841.78;;;22.74;45.97
60319;BME280;46163;52.306;5.634;2023-07-16T07:22:36;100833.88;;;24.65;41.54
60319;BME280;46163;52.306;5.634;2023-07-16T07:25:01;100848.03;;;24.24;41.67
60319;BME280;46163;52.306;5.634;2023-07-16T07:27:26;100860.81;;;23.47;43.22
60319;BME280;46163;52.306;5.634;2023-07-16T07:29:52;100861.47;;;21.60;47.22
60319;BME280;46163;52.306;5.634;2023-07-16T07:32:21;100877.09;;;20.72;48.86
60319;BME280;46163;52.306;5.634;2023-07-16T07:34:47;100878.84;;;20.36;50.26
60319;BME280;46163;52.306;5.634;2023-07-16T07:37:12;100878.44;;;20.74;49.94
60319;BME280;46163;52.306;5.634;2023-07-16T07:39:38;100890.41;;;20.16;51.31
60319;BME280;46163;52.306;5.634;2023-07-16T07:42:04;100883.28;;;19.99;51.67
60319;BME280;46163;52.306;5.634;2023-07-16T07:44:30;100877.88;;;20.57;51.33
60319;BME280;46163;52.306;5.634;2023-07-16T07:46:57;100867.69;;;21.76;47.48
60319;BME280;46163;52.306;5.634;2023-07-16T07:49:23;100882.34;;;21.55;48.39
60319;BME280;46163;52.306;5.634;2023-07-16T07:51:48;100883.13;;;21.65;47.83
60319;BME280;46163;52.306;5.634;2023-07-16T07:54:15;100875.44;;;22.13;45.89
60319;BME280;46163;52.306;5.634;2023-07-16T07:56:40;100884.44;;;22.63;45.07
60319;BME280;46163;52.306;5.634;2023-07-16T07:59:06;100889.50;;;23.53;44.00
60319;BME280;46163;52.306;5.634;2023-07-16T08:01:32;100872.78;;;23.99;42.91
60319;BME280;46163;52.306;5.634;2023-07-16T08:03:57;100890.50;;;22.99;44.45
60319;BME280;46163;52.306;5.634;2023-07-16T08:08:48;100906.44;;;21.51;47.94
60319;BME280;46163;52.306;5.634;2023-07-16T08:11:13;100914.44;;;20.70;49.96
60319;BME280;46163;52.306;5.634;2023-07-16T08:13:38;100918.97;;;20.54;51.34
60319;BME280;46163;52.306;5.634;2023-07-16T08:16:04;100928.50;;;20.19;51.81
60319;BME280;46163;52.306;5.634;2023-07-16T08:18:29;100917.81;;;19.92;52.19
60319;BME280;46163;52.306;5.634;2023-07-16T08:20:55;100920.41;;;19.77;52.67
60319;BME280;46163;52.306;5.634;2023-07-16T08:23:20;100922.22;;;20.56;50.50
60319;BME280;46163;52.306;5.634;2023-07-16T08:25:46;100920.81;;;20.48;50.65
60319;BME280;46163;52.306;5.634;2023-07-16T08:28:14;100920.25;;;21.39;49.17
60319;BME280;46163;52.306;5.634;2023-07-16T08:30:42;100928.38;;;21.65;48.06
60319;BME280;46163;52.306;5.634;2023-07-16T08:33:08;100924.50;;;21.00;49.51
60319;BME280;46163;52.306;5.634;2023-07-16T08:35:37;100920.47;;;21.23;48.95
60319;BME280;46163;52.306;5.634;2023-07-16T08:38:02;100929.97;;;21.35;48.21
60319;BME280;46163;52.306;5.634;2023-07-16T08:40:28;100921.25;;;21.08;49.64
60319;BME280;46163;52.306;5.634;2023-07-16T08:42:53;100923.69;;;20.94;50.26
60319;BME280;46163;52.306;5.634;2023-07-16T08:45:21;100924.00;;;21.28;48.84
60319;BME280;46163;52.306;5.634;2023-07-16T08:47:49;100914.28;;;21.32;49.02
60319;BME280;46163;52.306;5.634;2023-07-16T08:50:15;100933.22;;;21.98;47.13
60319;BME280;46163;52.306;5.634;2023-07-16T08:52:42;100946.72;;;22.04;47.64
60319;BME280;46163;52.306;5.634;2023-07-16T08:55:08;100934.72;;;22.50;46.50
60319;BME280;46163;52.306;5.634;2023-07-16T08:57:34;100928.72;;;23.08;46.01
60319;BME280;46163;52.306;5.634;2023-07-16T09:00:00;100939.09;;;22.36;46.96
60319;BME280;46163;52.306;5.634;2023-07-16T09:02:28;100938.63;;;21.78;48.36
60319;BME280;46163;52.306;5.634;2023-07-16T09:04:53;100952.38;;;21.05;49.52
60319;BME280;46163;52.306;5.634;2023-07-16T09:07:20;100947.19;;;20.78;50.54
60319;BME280;46163;52.306;5.634;2023-07-16T09:09:58;100963.59;;;21.65;49.44
60319;BME280;46163;52.306;5.634;2023-07-16T09:12:24;100953.28;;;22.08;47.78
60319;BME280;46163;52.306;5.634;2023-07-16T09:14:49;100962.22;;;21.52;48.54
60319;BME280;46163;52.306;5.634;2023-07-16T09:17:22;100957.84;;;21.21;49.38
60319;BME280;46163;52.306;5.634;2023-07-16T09:19:51;100964.09;;;21.36;49.49
60319;BME280;46163;52.306;5.634;2023-07-16T09:22:18;100972.25;;;21.72;49.19
60319;BME280;46163;52.306;5.634;2023-07-16T09:24:47;100981.44;;;21.66;48.79
60319;BME280;46163;52.306;5.634;2023-07-16T09:27:13;100970.88;;;21.39;49.49
60319;BME280;46163;52.306;5.634;2023-07-16T09:29:41;100988.38;;;21.06;50.01
60319;BME280;46163;52.306;5.634;2023-07-16T09:32:07;100981.19;;;20.59;51.28
60319;BME280;46163;52.306;5.634;2023-07-16T09:34:32;100984.81;;;20.38;51.89
60319;BME280;46163;52.306;5.634;2023-07-16T09:36:59;100985.56;;;20.28;52.48
60319;BME280;46163;52.306;5.634;2023-07-16T09:39:25;100994.25;;;19.93;52.80
60319;BME280;46163;52.306;5.634;2023-07-16T09:41:51;101003.44;;;19.97;52.94
60319;BME280;46163;52.306;5.634;2023-07-16T09:44:17;101011.13;;;19.73;53.29
60319;BME280;46163;52.306;5.634;2023-07-16T09:46:43;101004.25;;;19.60;53.62
60319;BME280;46163;52.306;5.634;2023-07-16T09:49:10;101013.16;;;19.61;54.06
60319;BME280;46163;52.306;5.634;2023-07-16T09:51:37;101003.50;;;19.43;54.59
60319;BME280;46163;52.306;5.634;2023-07-16T09:54:03;101029.03;;;19.84;54.45
60319;BME280;46163;52.306;5.634;2023-07-16T09:56:36;101009.66;;;19.92;53.20
60319;BME280;46163;52.306;5.634;2023-07-16T09:59:12;100998.13;;;21.17;50.88
60319;BME280;46163;52.306;5.634;2023-07-16T10:01:39;101001.97;;;21.36;50.26
60319;BME280;46163;52.306;5.634;2023-07-16T10:04:12;100995.25;;;22.10;48.16
60319;BME280;46163;52.306;5.634;2023-07-16T10:06:52;100989.00;;;22.15;47.46
60319;BME280;46163;52.306;5.634;2023-07-16T10:09:33;101003.91;;;21.61;48.67
60319;BME280;46163;52.306;5.634;2023-07-16T10:12:15;101008.31;;;20.79;50.40
60319;BME280;46163;52.306;5.634;2023-07-16T10:14:45;101020.09;;;20.58;51.68
60319;BME280;46163;52.306;5.634;2023-07-16T10:17:16;101019.78;;;20.49;52.56
60319;BME280;46163;52.306;5.634;2023-07-16T10:22:51;101026.38;;;20.74;52.00
60319;BME280;46163;52.306;5.634;2023-07-16T10:27:42;101021.66;;;20.49;51.71
60319;BME280;46163;52.306;5.634;2023-07-16T10:30:08;101039.13;;;20.78;51.23
60319;BME280;46163;52.306;5.634;2023-07-16T10:32:33;101063.97;;;21.28;50.90
60319;BME280;46163;52.306;5.634;2023-07-16T10:34:59;101029.38;;;21.65;49.32
60319;BME280;46163;52.306;5.634;2023-07-16T10:37:26;101026.63;;;21.35;50.41
60319;BME280;46163;52.306;5.634;2023-07-16T10:39:56;101041.44;;;21.17;50.48
60319;BME280;46163;52.306;5.634;2023-07-16T10:42:26;101041.44;;;21.12;51.06
60319;BME280;46163;52.306;5.634;2023-07-16T10:44:57;101039.22;;;20.99;50.76
60319;BME280;46163;52.306;5.634;2023-07-16T10:47:37;101042.78;;;20.57;51.28
60319;BME280;46163;52.306;5.634;2023-07-16T10:50:09;101047.38;;;20.51;52.45
60319;BME280;46163;52.306;5.634;2023-07-16T10:52:37;101049.81;;;20.58;53.33
60319;BME280;46163;52.306;5.634;2023-07-16T10:55:03;101055.28;;;20.63;51.12
60319;BME280;46163;52.306;5.634;2023-07-16T10:57:29;101051.22;;;20.66;51.59
60319;BME280;46163;52.306;5.634;2023-07-16T10:59:57;101059.38;;;20.76;52.14
60319;BME280;46163;52.306;5.634;2023-07-16T11:02:24;101057.81;;;20.80;51.63
60319;BME280;46163;52.306;5.634;2023-07-16T11:04:51;101052.34;;;20.75;51.93
60319;BME280;46163;52.306;5.634;2023-07-16T11:07:22;101059.41;;;20.81;51.59
60319;BME280;46163;52.306;5.634;2023-07-16T11:09:50;101067.38;;;21.03;51.22
60319;BME280;46163;52.306;5.634;2023-07-16T11:12:17;101069.16;;;20.77;52.02
60319;BME280;46163;52.306;5.634;2023-07-16T11:14:50;101065.00;;;20.64;51.75
60319;BME280;46163;52.306;5.634;2023-07-16T11:17:19;101067.06;;;20.47;52.18
60319;BME280;46163;52.306;5.634;2023-07-16T11:19:49;101054.97;;;20.54;52.14
60319;BME280;46163;52.306;5.634;2023-07-16T11:22:15;101069.41;;;20.33;52.65
60319;BME280;46163;52.306;5.634;2023-07-16T11:24:42;101071.25;;;20.32;52.94
60319;BME280;46163;52.306;5.634;2023-07-16T11:27:26;101072.41;;;20.84;51.71
60319;BME280;46163;52.306;5.634;2023-07-16T11:29:56;101067.38;;;21.03;50.51
60319;BME280;46163;52.306;5.634;2023-07-16T11:32:42;101067.66;;;21.06;50.31
60319;BME280;46163;52.306;5.634;2023-07-16T11:35:10;101071.22;;;21.12;50.60
60319;BME280;46163;52.306;5.634;2023-07-16T11:37:40;101081.25;;;21.22;50.53
60319;BME280;46163;52.306;5.634;2023-07-16T11:40:08;101067.75;;;20.69;51.42
60319;BME280;46163;52.306;5.634;2023-07-16T11:42:36;101091.28;;;20.69;51.09
60319;BME280;46163;52.306;5.634;2023-07-16T11:45:04;101081.00;;;20.71;50.99
60319;BME280;46163;52.306;5.634;2023-07-16T11:47:30;101100.41;;;21.10;51.01
60319;BME280;46163;52.306;5.634;2023-07-16T11:49:57;101072.38;;;21.36;51.04
60319;BME280;46163;52.306;5.634;2023-07-16T11:52:23;101110.53;;;21.35;51.46
60319;BME280;46163;52.306;5.634;2023-07-16T11:54:51;101091.09;;;21.53;50.48
60319;BME280;46163;52.306;5.634;2023-07-16T11:57:17;101102.28;;;21.72;49.87
60319;BME280;46163;52.306;5.634;2023-07-16T11:59:43;101080.53;;;21.47;50.45
60319;BME280;46163;52.306;5.634;2023-07-16T12:02:08;101104.09;;;21.51;50.42
60319;BME280;46163;52.306;5.634;2023-07-16T12:04:34;101092.16;;;21.42;51.33
60319;BME280;46163;52.306;5.634;2023-07-16T12:06:59;101113.66;;;21.06;50.59
60319;BME280;46163;52.306;5.634;2023-07-16T12:09:25;101114.44;;;21.02;51.44
60319;BME280;46163;52.306;5.634;2023-07-16T12:11:50;101108.47;;;21.00;51.05
60319;BME280;46163;52.306;5.634;2023-07-16T12:14:16;101105.63;;;21.27;51.00
60319;BME280;46163;52.306;5.634;2023-07-16T12:16:41;101118.16;;;20.91;50.14
60319;BME280;46163;52.306;5.634;2023-07-16T12:19:09;101118.31;;;20.69;50.59
60319;BME280;46163;52.306;5.634;2023-07-16T12:21:35;101116.94;;;20.61;50.95
60319;BME280;46163;52.306;5.634;2023-07-16T12:24:00;101124.88;;;20.78;51.06
60319;BME280;46163;52.306;5.634;2023-07-16T12:26:26;101128.94;;;20.80;50.75
60319;BME280;46163;52.306;5.634;2023-07-16T12:28:54;101098.19;;;21.02;50.70
60319;BME280;46163;52.306;5.634;2023-07-16T12:31:20;101132.31;;;21.03;49.16
60319;BME280;46163;52.306;5.634;2023-07-16T12:33:46;101127.09;;;21.43;48.50
60319;BME280;46163;52.306;5.634;2023-07-16T12:36:12;101128.78;;;21.55;47.99
60319;BME280;46163;52.306;5.634;2023-07-16T12:38:38;101112.56;;;21.75;46.94
60319;BME280;46163;52.306;5.634;2023-07-16T12:41:04;101130.19;;;21.93;47.14
60319;BME280;46163;52.306;5.634;2023-07-16T12:43:32;101130.50;;;22.07;46.66
60319;BME280;46163;52.306;5.634;2023-07-16T12:46:03;101121.28;;;22.28;46.83
60319;BME280;46163;52.306;5.634;2023-07-16T12:48:30;101136.75;;;22.38;47.31
60319;BME280;46163;52.306;5.634;2023-07-16T12:50:55;101119.13;;;22.20;45.03
60319;BME280;46163;52.306;5.634;2023-07-16T12:53:21;101122.09;;;22.13;45.69
60319;BME280;46163;52.306;5.634;2023-07-16T12:55:49;101119.09;;;21.94;45.94
60319;BME280;46163;52.306;5.634;2023-07-16T12:58:15;101127.22;;;21.99;45.80
60319;BME280;46163;52.306;5.634;2023-07-16T13:00:40;101134.84;;;22.08;47.35
60319;BME280;46163;52.306;5.634;2023-07-16T13:03:06;101126.72;;;22.38;45.72